createdAt,value
2022-08-11T00:02:00.622Z,8.80
2022-08-11T00:04:37.309Z,10.02
2022-08-11T00:07:06.918Z,9.10
2022-08-11T00:09:40.140Z,9.95
2022-08-11T00:12:18.511Z,8.45
2022-08-11T00:14:55.516Z,9.23
2022-08-11T00:17:28.210Z,9.73
2022-08-11T00:20:16.232Z,8.55
2022-08-11T00:25:21.680Z,8.32
2022-08-11T00:27:49.680Z,8.77
2022-08-11T00:30:17.499Z,7.60
2022-08-11T00:32:54.930Z,7.38
2022-08-11T00:35:53.802Z,6.40
2022-08-11T00:38:19.371Z,6.05
2022-08-11T00:41:24.831Z,6.72
2022-08-11T00:44:26.415Z,7.17
2022-08-11T00:47:12.538Z,7.45
2022-08-11T00:49:45.711Z,6.63
2022-08-11T00:52:44.781Z,6.10
2022-08-11T00:55:41.919Z,7.03
2022-08-11T00:58:59.492Z,5.70
2022-08-11T01:01:39.000Z,5.72
2022-08-11T01:04:12.703Z,5.45
2022-08-11T01:07:06.158Z,6.95
2022-08-11T01:09:52.017Z,7.28
2022-08-11T01:12:36.532Z,7.35
2022-08-11T01:15:22.300Z,7.68
2022-08-11T01:18:28.797Z,7.30
2022-08-11T01:21:30.943Z,6.15
2022-08-11T01:24:37.146Z,7.03
2022-08-11T01:27:22.615Z,8.02
2022-08-11T01:30:15.131Z,6.53
2022-08-11T01:33:03.973Z,7.00
2022-08-11T01:38:32.923Z,6.43
2022-08-11T01:41:57.783Z,6.53
2022-08-11T01:44:40.138Z,6.70
2022-08-11T01:47:30.691Z,5.97
2022-08-11T01:50:16.887Z,6.18
2022-08-11T01:52:56.929Z,6.30
2022-08-11T01:55:43.118Z,5.57
2022-08-11T01:58:16.791Z,6.50
2022-08-11T02:01:11.588Z,5.85
2022-08-11T02:04:03.389Z,6.78
2022-08-11T02:06:54.594Z,5.82
2022-08-11T02:09:49.554Z,6.07
2022-08-11T02:12:52.653Z,6.32
2022-08-11T02:15:36.606Z,6.43
2022-08-11T02:18:54.234Z,5.85
2022-08-11T02:21:49.009Z,6.57
2022-08-11T02:24:31.999Z,6.07
2022-08-11T02:27:09.131Z,6.28
2022-08-11T02:29:51.995Z,5.47
2022-08-11T02:33:04.629Z,6.30
2022-08-11T02:35:45.766Z,6.10
2022-08-11T02:38:26.846Z,6.53
2022-08-11T02:41:31.600Z,6.90
2022-08-11T02:44:29.216Z,6.65
2022-08-11T02:47:07.444Z,6.45
2022-08-11T02:50:06.579Z,7.10
2022-08-11T02:53:20.084Z,6.32
2022-08-11T02:56:22.993Z,6.80
2022-08-11T02:59:22.295Z,6.28
2022-08-11T03:02:04.559Z,6.85
2022-08-11T03:05:12.244Z,6.53
2022-08-11T03:08:01.097Z,6.70
2022-08-11T03:13:36.939Z,5.75
2022-08-11T03:16:46.811Z,6.65
2022-08-11T03:19:38.776Z,6.55
2022-08-11T03:22:11.079Z,6.25
2022-08-11T03:24:57.999Z,5.72
2022-08-11T03:27:50.857Z,7.38
2022-08-11T03:30:33.829Z,6.60
2022-08-11T03:33:48.331Z,6.47
2022-08-11T03:36:28.209Z,6.35
2022-08-11T03:39:16.263Z,5.75
2022-08-11T03:42:16.174Z,5.90
2022-08-11T03:44:49.769Z,6.45
2022-08-11T03:47:24.226Z,6.60
2022-08-11T03:50:01.070Z,6.03
2022-08-11T03:53:05.872Z,5.88
2022-08-11T03:55:52.586Z,6.85
2022-08-11T03:59:08.676Z,6.03
2022-08-11T04:01:45.371Z,5.85
2022-08-11T04:04:35.621Z,6.40
2022-08-11T04:07:40.934Z,5.43
2022-08-11T04:10:11.677Z,5.45
2022-08-11T04:13:13.446Z,5.90
2022-08-11T04:16:13.028Z,5.40
2022-08-11T04:18:49.799Z,6.45
2022-08-11T04:21:35.864Z,5.50
2022-08-11T04:24:38.613Z,6.38
2022-08-11T04:27:37.696Z,6.60
2022-08-11T04:30:19.204Z,6.13
2022-08-11T04:32:59.202Z,6.40
2022-08-11T04:35:48.684Z,6.55
2022-08-11T04:38:49.270Z,5.68
2022-08-11T04:42:04.597Z,6.53
2022-08-11T04:44:57.223Z,6.97
2022-08-11T04:48:10.959Z,5.70
2022-08-11T04:51:32.726Z,6.10
2022-08-11T04:54:39.142Z,6.40
2022-08-11T04:57:40.885Z,5.65
2022-08-11T05:00:30.286Z,6.55
2022-08-11T05:03:22.401Z,6.40
2022-08-11T05:06:10.335Z,6.63
2022-08-11T05:08:56.413Z,4.57
2022-08-11T05:11:33.210Z,6.40
2022-08-11T05:14:31.424Z,6.50
2022-08-11T05:17:24.590Z,7.25
2022-08-11T05:20:10.974Z,6.10
2022-08-11T05:23:06.297Z,6.43
2022-08-11T05:26:09.377Z,6.70
2022-08-11T05:29:19.530Z,7.07
2022-08-11T05:32:17.871Z,6.72
2022-08-11T05:34:54.847Z,6.30
2022-08-11T05:37:34.567Z,6.22
2022-08-11T05:40:30.395Z,6.22
2022-08-11T05:43:22.313Z,6.38
2022-08-11T05:46:22.436Z,7.07
2022-08-11T05:49:10.341Z,6.35
2022-08-11T05:52:05.577Z,6.80
2022-08-11T05:55:06.066Z,7.43
2022-08-11T05:57:38.618Z,6.47
2022-08-11T06:00:20.025Z,5.63
2022-08-11T06:05:19.576Z,6.60
2022-08-11T06:07:50.084Z,8.50
2022-08-11T06:10:33.363Z,5.95
2022-08-11T06:13:02.361Z,6.93
2022-08-11T06:15:32.828Z,6.60
2022-08-11T06:18:03.011Z,6.68
2022-08-11T06:20:37.077Z,6.90
2022-08-11T06:23:07.672Z,6.45
2022-08-11T06:25:36.470Z,5.85
2022-08-11T06:28:06.833Z,5.68
2022-08-11T06:30:42.157Z,5.78
2022-08-11T06:33:33.509Z,7.47
2022-08-11T06:36:22.443Z,5.03
2022-08-11T06:39:13.672Z,4.88
2022-08-11T06:42:12.958Z,6.03
2022-08-11T06:44:58.393Z,5.93
2022-08-11T06:47:26.799Z,4.97
2022-08-11T06:50:16.867Z,4.95
2022-08-11T06:52:47.518Z,4.82
2022-08-11T06:55:57.454Z,4.18
2022-08-11T06:58:51.569Z,3.65
2022-08-11T07:01:33.330Z,3.97
2022-08-11T07:04:10.404Z,4.78
2022-08-11T07:07:12.668Z,3.97
2022-08-11T07:10:36.601Z,4.55
2022-08-11T07:13:44.949Z,4.68
2022-08-11T07:16:16.293Z,4.68
2022-08-11T07:19:05.533Z,4.93
2022-08-11T07:22:05.245Z,5.75
2022-08-11T07:25:02.476Z,4.97
2022-08-11T07:28:21.566Z,4.77
2022-08-11T07:30:54.578Z,4.63
2022-08-11T07:34:07.747Z,4.97
2022-08-11T07:36:46.145Z,4.22
2022-08-11T07:39:33.570Z,4.70
2022-08-11T07:42:08.947Z,6.22
2022-08-11T07:44:59.977Z,4.35
2022-08-11T07:47:47.420Z,4.63
2022-08-11T07:50:34.853Z,4.13
2022-08-11T07:53:04.325Z,5.38
2022-08-11T07:55:50.891Z,4.95
2022-08-11T07:58:45.468Z,3.83
2022-08-11T08:01:43.056Z,3.65
2022-08-11T08:04:35.946Z,4.63
2022-08-11T08:07:23.816Z,2.90
2022-08-11T08:10:15.866Z,3.22
2022-08-11T08:13:03.717Z,2.88
2022-08-11T08:15:50.422Z,3.17
2022-08-11T08:18:26.875Z,2.60
2022-08-11T08:21:12.013Z,3.10
2022-08-11T08:23:43.570Z,3.00
2022-08-11T08:26:32.587Z,3.53
2022-08-11T08:29:25.901Z,2.60
2022-08-11T08:31:56.658Z,2.13
2022-08-11T08:34:25.793Z,2.67
2022-08-11T08:36:53.888Z,2.30
2022-08-11T08:39:22.541Z,2.65
2022-08-11T08:41:54.805Z,3.03
2022-08-11T08:44:41.492Z,2.90
2022-08-11T08:47:37.839Z,3.03
2022-08-11T08:50:27.583Z,2.40
2022-08-11T08:53:10.704Z,2.53
2022-08-11T08:55:45.361Z,2.10
2022-08-11T08:58:15.946Z,2.40
2022-08-11T09:00:47.023Z,2.35
2022-08-11T09:03:39.872Z,2.70
2022-08-11T09:06:02.647Z,1.90
2022-08-11T09:08:32.974Z,2.47
2022-08-11T09:11:21.545Z,2.22
2022-08-11T09:14:04.795Z,2.08
2022-08-11T09:16:36.986Z,2.40
2022-08-11T09:19:05.477Z,2.08
2022-08-11T09:21:44.486Z,2.90
2022-08-11T09:24:38.035Z,2.30
2022-08-11T09:27:10.626Z,1.95
2022-08-11T09:29:39.334Z,2.08
2022-08-11T09:32:08.425Z,1.98
2022-08-11T09:34:39.220Z,2.00
2022-08-11T09:37:28.780Z,2.53
2022-08-11T09:40:31.296Z,2.78
2022-08-11T09:43:22.692Z,2.13
2022-08-11T09:45:53.298Z,2.10
2022-08-11T09:48:24.107Z,1.88
2022-08-11T09:50:55.857Z,2.08
2022-08-11T09:53:35.702Z,1.85
2022-08-11T09:56:40.459Z,2.13
2022-08-11T09:59:09.424Z,2.00
2022-08-11T10:01:49.617Z,1.65
2022-08-11T10:04:22.922Z,1.83
2022-08-11T10:07:04.205Z,2.22
2022-08-11T10:09:38.667Z,1.75
2022-08-11T10:12:14.656Z,1.33
2022-08-11T10:15:06.964Z,1.67
2022-08-11T10:17:39.693Z,1.20
2022-08-11T10:20:09.074Z,1.90
2022-08-11T10:22:55.670Z,1.63
2022-08-11T10:25:42.151Z,1.80
2022-08-11T10:28:32.744Z,1.98
2022-08-11T10:31:17.753Z,1.48
2022-08-11T10:34:02.079Z,1.75
2022-08-11T10:36:35.372Z,1.50
2022-08-11T10:39:08.504Z,1.80
2022-08-11T10:42:02.875Z,1.60
2022-08-11T10:44:41.506Z,1.80
2022-08-11T10:47:31.116Z,1.50
2022-08-11T10:50:17.823Z,1.63
2022-08-11T10:53:08.408Z,1.98
2022-08-11T10:55:58.403Z,1.75
2022-08-11T10:58:45.649Z,1.88
2022-08-11T11:01:15.023Z,1.52
2022-08-11T11:03:43.697Z,1.33
2022-08-11T11:06:44.969Z,1.73
2022-08-11T11:09:42.085Z,1.48
2022-08-11T11:12:34.559Z,1.45
2022-08-11T11:15:23.125Z,1.80
2022-08-11T11:18:04.671Z,1.70
2022-08-11T11:20:36.381Z,1.63
2022-08-11T11:23:23.692Z,1.98
2022-08-11T11:26:27.729Z,1.60
2022-08-11T11:29:33.181Z,1.70
2022-08-11T11:32:06.742Z,2.05
2022-08-11T11:35:09.078Z,1.50
2022-08-11T11:37:38.120Z,2.25
2022-08-11T11:40:14.679Z,2.17
2022-08-11T11:42:45.322Z,1.85
2022-08-11T11:45:22.822Z,1.55
2022-08-11T11:47:56.250Z,1.70
2022-08-11T11:50:31.572Z,2.25
2022-08-11T11:53:03.970Z,2.20
2022-08-11T11:55:32.938Z,2.17
2022-08-11T11:58:22.062Z,1.75
2022-08-11T12:01:11.227Z,1.60
2022-08-11T12:03:39.886Z,1.90
2022-08-11T12:08:37.905Z,1.40
2022-08-11T12:11:27.627Z,1.80
2022-08-11T12:14:02.329Z,2.22
2022-08-11T12:16:33.949Z,1.75
2022-08-11T12:19:23.037Z,2.03
2022-08-11T12:22:11.306Z,1.92
2022-08-11T12:24:58.703Z,1.80
2022-08-11T12:27:30.852Z,2.08
2022-08-11T12:30:09.114Z,2.38
2022-08-11T12:35:08.030Z,1.98
2022-08-11T12:37:43.781Z,1.50
2022-08-11T12:41:03.485Z,1.50
2022-08-11T12:43:56.920Z,1.70
2022-08-11T12:46:32.953Z,1.83
2022-08-11T12:49:30.985Z,1.35
2022-08-11T12:52:14.637Z,1.83
2022-08-11T12:54:59.165Z,2.00
2022-08-11T12:57:55.516Z,2.00
2022-08-11T13:00:44.691Z,1.60
2022-08-11T13:03:32.825Z,1.65
2022-08-11T13:06:02.926Z,1.80
2022-08-11T13:08:34.198Z,1.08
2022-08-11T13:11:21.853Z,2.00
2022-08-11T13:13:57.098Z,1.73
2022-08-11T13:16:31.683Z,1.75
2022-08-11T13:19:03.683Z,1.35
2022-08-11T13:21:32.075Z,1.50
2022-08-11T13:26:48.132Z,1.40
2022-08-11T13:29:24.366Z,2.28
2022-08-11T13:31:54.732Z,1.95
2022-08-11T13:34:26.322Z,1.60
2022-08-11T13:36:56.839Z,1.30
2022-08-11T13:39:28.708Z,1.50
2022-08-11T13:41:59.667Z,1.35
2022-08-11T13:44:30.507Z,1.60
2022-08-11T13:47:01.758Z,1.73
2022-08-11T13:49:31.579Z,1.10
2022-08-11T13:51:59.821Z,1.30
2022-08-11T13:54:33.827Z,1.73
2022-08-11T13:57:08.278Z,1.50
2022-08-11T13:59:45.281Z,1.58
2022-08-11T14:02:29.093Z,1.02
2022-08-11T14:07:36.917Z,1.17
2022-08-11T14:10:07.503Z,1.50
2022-08-11T14:12:56.132Z,1.08
2022-08-11T14:15:27.489Z,1.33
2022-08-11T14:18:03.481Z,1.30
2022-08-11T14:21:01.202Z,1.15
2022-08-11T14:23:38.815Z,1.02
2022-08-11T14:26:24.210Z,1.33
2022-08-11T14:29:04.892Z,1.77
2022-08-11T14:31:35.933Z,1.50
2022-08-11T14:34:06.568Z,0.95
2022-08-11T14:36:40.967Z,1.15
2022-08-11T14:39:18.591Z,1.13
2022-08-11T14:42:14.446Z,1.08
2022-08-11T14:45:14.066Z,0.90
2022-08-11T14:47:44.912Z,1.58
2022-08-11T14:50:15.712Z,0.90
2022-08-11T14:52:52.005Z,1.05
2022-08-11T14:55:41.324Z,1.10
2022-08-11T14:58:11.583Z,1.20
2022-08-11T15:00:41.332Z,1.38
2022-08-11T15:03:12.634Z,1.27
2022-08-11T15:05:57.157Z,1.15
2022-08-11T15:08:49.893Z,1.50
2022-08-11T15:11:39.203Z,1.15
2022-08-11T15:14:09.075Z,0.93
2022-08-11T15:17:01.691Z,1.08
2022-08-11T15:19:36.717Z,1.10
2022-08-11T15:22:29.490Z,1.35
2022-08-11T15:25:00.403Z,1.00
2022-08-11T15:27:48.501Z,1.20
2022-08-11T15:30:35.555Z,1.10
2022-08-11T15:33:27.227Z,1.40
2022-08-11T15:36:16.157Z,1.20
2022-08-11T15:39:20.923Z,1.08
2022-08-11T15:42:33.642Z,1.20
2022-08-11T15:45:24.023Z,1.60
2022-08-11T15:48:05.787Z,0.90
2022-08-11T15:50:38.874Z,1.38
2022-08-11T15:53:18.170Z,1.75
2022-08-11T15:55:48.217Z,1.20
2022-08-11T15:58:38.560Z,0.90
2022-08-11T16:01:28.054Z,1.10
2022-08-11T16:04:13.004Z,1.42
2022-08-11T16:06:51.110Z,1.30
2022-08-11T16:09:25.163Z,1.40
2022-08-11T16:12:02.767Z,1.00
2022-08-11T16:14:53.970Z,1.30
2022-08-11T16:17:25.532Z,1.15
2022-08-11T16:19:56.855Z,1.23
2022-08-11T16:22:43.139Z,1.50
2022-08-11T16:27:01.456Z,1.10
2022-08-11T16:28:17.072Z,1.40
2022-08-11T16:30:46.735Z,1.42
2022-08-11T16:33:48.526Z,1.50
2022-08-11T16:36:24.325Z,1.10
2022-08-11T16:38:54.566Z,0.95
2022-08-11T16:41:44.423Z,1.55
2022-08-11T16:44:37.797Z,1.38
2022-08-11T16:47:09.806Z,1.08
2022-08-11T16:49:52.817Z,0.90
2022-08-11T16:52:23.243Z,1.42
2022-08-11T16:54:52.742Z,0.80
2022-08-11T16:57:45.185Z,1.05
2022-08-11T17:00:16.677Z,1.35
2022-08-11T17:03:10.386Z,1.13
2022-08-11T17:06:03.568Z,1.67
2022-08-11T17:08:57.089Z,1.05
2022-08-11T17:11:51.445Z,1.13
2022-08-11T17:14:35.154Z,1.10
2022-08-11T17:17:21.189Z,0.98
2022-08-11T17:20:42.644Z,1.13
2022-08-11T17:23:01.457Z,3.53
2022-08-11T17:26:00.397Z,0.90
2022-08-11T17:28:21.565Z,1.10
2022-08-11T17:31:19.942Z,0.90
2022-08-11T17:34:12.666Z,1.55
2022-08-11T17:36:45.757Z,1.20
2022-08-11T17:39:15.406Z,1.17
2022-08-11T17:42:03.522Z,1.08
2022-08-11T17:44:52.681Z,1.25
2022-08-11T17:47:41.925Z,0.98
2022-08-11T17:50:17.621Z,1.45
2022-08-11T17:53:05.957Z,1.55
2022-08-11T17:56:11.511Z,1.42
2022-08-11T17:59:00.246Z,1.45
2022-08-11T18:01:33.910Z,0.60
2022-08-11T18:04:05.274Z,0.95
2022-08-11T18:06:35.279Z,0.95
2022-08-11T18:09:30.750Z,1.00
2022-08-11T18:12:18.633Z,1.20
2022-08-11T18:17:56.580Z,1.42
2022-08-11T18:20:43.222Z,1.20
2022-08-11T18:23:40.627Z,0.95
2022-08-11T18:26:38.940Z,1.10
2022-08-11T18:29:26.991Z,0.88
2022-08-11T18:32:21.242Z,1.00
2022-08-11T18:35:10.670Z,1.13
2022-08-11T18:38:05.360Z,1.15
2022-08-11T18:40:54.848Z,1.02
2022-08-11T18:43:44.775Z,1.27
2022-08-11T18:46:35.066Z,1.13
2022-08-11T18:50:03.711Z,0.70
2022-08-11T18:52:42.751Z,0.90
2022-08-11T18:58:23.762Z,1.42
2022-08-11T19:01:13.651Z,0.95
2022-08-11T19:04:03.794Z,0.82
2022-08-11T19:06:58.702Z,1.02
2022-08-11T19:09:46.445Z,0.95
2022-08-11T19:12:33.970Z,1.40
2022-08-11T19:15:21.269Z,1.50
2022-08-11T19:18:08.664Z,1.38
2022-08-11T19:20:55.941Z,1.33
2022-08-11T19:23:53.018Z,1.42
2022-08-11T19:26:41.171Z,1.08
2022-08-11T19:30:07.914Z,1.10
2022-08-11T19:32:35.557Z,1.30
2022-08-11T19:35:22.804Z,1.65
2022-08-11T19:38:10.512Z,1.45
2022-08-11T19:40:57.695Z,1.42
2022-08-11T19:43:45.876Z,1.15
2022-08-11T19:46:32.937Z,1.10
2022-08-11T19:49:20.614Z,1.65
2022-08-11T19:52:08.215Z,1.23
2022-08-11T19:54:56.907Z,1.30
2022-08-11T19:57:44.086Z,1.38
2022-08-11T20:00:34.991Z,1.40
2022-08-11T20:03:28.106Z,1.52
2022-08-11T20:06:20.811Z,2.30
2022-08-11T20:09:08.975Z,2.45
2022-08-11T20:12:01.601Z,2.92
2022-08-11T20:14:52.276Z,3.22
2022-08-11T20:17:42.408Z,2.85
2022-08-11T20:20:32.448Z,3.13
2022-08-11T20:23:24.543Z,4.40
2022-08-11T20:26:30.299Z,4.55
2022-08-11T20:29:18.717Z,4.22
2022-08-11T20:32:09.705Z,4.82
2022-08-11T20:34:58.795Z,4.80
2022-08-11T20:40:43.063Z,4.15
2022-08-11T20:44:06.875Z,5.70
2022-08-11T20:46:43.770Z,4.95
2022-08-11T20:49:45.067Z,7.10
2022-08-11T20:52:47.381Z,10.13
2022-08-11T20:55:45.575Z,11.45
2022-08-11T20:59:11.274Z,11.02
2022-08-11T21:01:43.872Z,9.50
2022-08-11T21:04:30.266Z,6.75
2022-08-11T21:07:28.276Z,7.50
2022-08-11T21:10:23.394Z,8.70
2022-08-11T21:13:18.044Z,19.33
2022-08-11T21:16:25.530Z,18.25
2022-08-11T21:20:00.331Z,14.27
2022-08-11T21:22:59.237Z,12.85
2022-08-11T21:26:00.988Z,10.93
2022-08-11T21:28:50.717Z,11.23
2022-08-11T21:31:38.740Z,6.20
2022-08-11T21:34:26.818Z,11.33
2022-08-11T21:37:13.593Z,13.93
2022-08-11T21:40:01.764Z,11.75
2022-08-11T21:42:51.940Z,11.85
2022-08-11T21:45:39.173Z,10.25
2022-08-11T21:48:28.792Z,9.98
2022-08-11T21:51:15.168Z,9.68
2022-08-11T21:54:02.076Z,9.20
2022-08-11T21:56:51.487Z,8.68
2022-08-11T21:59:46.290Z,8.98
2022-08-11T22:02:33.532Z,8.63
2022-08-11T22:05:19.777Z,8.85
2022-08-11T22:08:05.930Z,8.00
2022-08-11T22:10:52.046Z,7.45
2022-08-11T22:13:38.329Z,7.95
2022-08-11T22:16:24.915Z,5.82
2022-08-11T22:19:14.577Z,6.10
2022-08-11T22:22:04.113Z,6.00
2022-08-11T22:24:54.956Z,4.20
2022-08-11T22:27:42.542Z,3.45
2022-08-11T22:30:30.453Z,3.25
2022-08-11T22:33:24.387Z,3.08
2022-08-11T22:36:14.445Z,3.85
2022-08-11T22:39:04.171Z,2.70
2022-08-11T22:41:50.881Z,2.85
2022-08-11T22:44:37.163Z,2.42
2022-08-11T22:47:27.380Z,2.90
2022-08-11T22:50:22.510Z,3.10
2022-08-11T22:53:10.944Z,2.78
2022-08-11T22:55:58.996Z,2.97
2022-08-11T22:58:46.781Z,2.30
2022-08-11T23:01:37.050Z,2.83
2022-08-11T23:04:24.256Z,3.92
2022-08-11T23:07:11.344Z,3.13
2022-08-11T23:09:59.029Z,2.67
2022-08-11T23:12:47.505Z,2.92
2022-08-11T23:15:33.833Z,2.95
2022-08-11T23:18:24.622Z,2.95
2022-08-11T23:21:11.031Z,3.10
2022-08-11T23:23:57.919Z,2.90
2022-08-11T23:26:48.335Z,2.95
2022-08-11T23:29:35.372Z,3.30
2022-08-11T23:32:23.112Z,2.75
2022-08-11T23:35:38.445Z,2.70
2022-08-11T23:38:22.151Z,4.68
2022-08-11T23:41:09.375Z,3.08
2022-08-11T23:43:55.924Z,3.40
2022-08-11T23:46:44.981Z,3.30
2022-08-11T23:49:33.254Z,2.88
2022-08-11T23:52:21.254Z,3.85
2022-08-11T23:55:08.943Z,3.70
2022-08-11T23:57:55.259Z,3.35
